Lynnfield, Massachusetts
Current Conditions -  °F | °C
As of 12:53 AM on Thursday 29 Jan 2015 (Local Time) from KBVY Reporting Station
Clear Clear  
Wind Chill:   Ceiling: Unl
Heat Index: 10°   Visibility: 10mi
Dew Point: -5°   Wind: 5mph
Humidity: 51%   Direction: 310°NW
Pressure: 30.23"   Gusts: NA
Location:  42.54°N, 71.05°W
Report Text: KBVY 290553Z AUTO 31004KT 10SM CLR M12/M21 A3023 RMK AO2 SLP235 T11221206 11067 21122 51015
Loading
Personal Weather Stations






























Interactive Weather Map New forecast layout! Learn more

10-Day Weather Forecast

Advertisements
Track Severe Weather on mobile